createdAt,value
2022-08-17T00:00:43.332Z,26.30
2022-08-17T00:03:06.082Z,28.22
2022-08-17T00:05:39.683Z,28.77
2022-08-17T00:08:08.844Z,27.69
2022-08-17T00:13:40.352Z,26.55
2022-08-17T00:16:50.436Z,28.36
2022-08-17T00:19:24.013Z,28.33
2022-08-17T00:22:32.379Z,27.20
2022-08-17T00:24:44.726Z,26.18
2022-08-17T00:27:12.902Z,26.20
2022-08-17T00:29:41.382Z,27.91
2022-08-17T00:33:15.854Z,28.69
2022-08-17T00:34:57.697Z,27.58
2022-08-17T00:37:25.874Z,26.57
2022-08-17T00:39:54.213Z,26.31
2022-08-17T00:42:23.237Z,27.91
2022-08-17T00:44:52.953Z,28.63
2022-08-17T00:47:21.129Z,27.69
2022-08-17T00:49:49.247Z,26.71
2022-08-17T00:52:21.981Z,26.00
2022-08-17T00:54:53.460Z,26.38
2022-08-17T00:57:40.550Z,28.19
2022-08-17T01:00:16.786Z,28.19
2022-08-17T01:02:47.034Z,27.08
2022-08-17T01:05:19.826Z,26.21
2022-08-17T01:07:53.421Z,26.12
2022-08-17T01:10:58.300Z,27.85
2022-08-17T01:13:16.553Z,28.06
2022-08-17T01:16:02.382Z,27.01
2022-08-17T01:18:32.093Z,26.06
2022-08-17T01:21:08.084Z,25.45
2022-08-17T01:23:36.676Z,26.21
2022-08-17T01:26:06.751Z,27.93
2022-08-17T01:28:53.700Z,27.75
2022-08-17T01:31:29.005Z,26.56
2022-08-17T01:34:00.653Z,25.72
2022-08-17T01:36:30.889Z,25.74
2022-08-17T01:39:00.390Z,27.47
2022-08-17T01:41:28.769Z,28.09
2022-08-17T01:44:04.997Z,27.10
2022-08-17T01:46:37.455Z,26.10
2022-08-17T01:49:08.655Z,25.35
2022-08-17T01:51:37.285Z,25.66
2022-08-17T01:54:10.735Z,27.47
2022-08-17T01:56:43.105Z,27.97
2022-08-17T01:59:17.274Z,26.87
2022-08-17T02:01:46.656Z,25.92
2022-08-17T02:04:15.965Z,25.23
2022-08-17T02:06:52.590Z,25.60
2022-08-17T02:09:25.342Z,27.53
2022-08-17T02:11:56.381Z,27.77
2022-08-17T02:14:26.024Z,26.69
2022-08-17T02:16:54.709Z,25.76
2022-08-17T02:19:23.298Z,25.10
2022-08-17T02:21:53.823Z,25.35
2022-08-17T02:24:58.194Z,27.22
2022-08-17T02:27:15.465Z,27.74
2022-08-17T02:29:43.536Z,26.66
2022-08-17T02:32:25.513Z,25.72
2022-08-17T02:35:01.901Z,25.66
2022-08-17T02:37:31.301Z,27.43
2022-08-17T02:39:59.929Z,27.80
2022-08-17T02:42:34.203Z,26.74
2022-08-17T02:45:11.333Z,25.76
2022-08-17T02:47:40.411Z,25.64
2022-08-17T02:50:11.832Z,27.36
2022-08-17T02:52:44.015Z,27.89
2022-08-17T02:55:17.191Z,26.83
2022-08-17T02:57:45.776Z,25.86
2022-08-17T03:00:21.456Z,25.17
2022-08-17T03:02:50.101Z,25.32
2022-08-17T03:05:22.689Z,27.17
2022-08-17T03:07:51.547Z,27.49
2022-08-17T03:10:20.469Z,26.45
2022-08-17T03:12:48.953Z,25.52
2022-08-17T03:15:23.474Z,24.82
2022-08-17T03:17:52.595Z,25.23
2022-08-17T03:20:21.561Z,27.11
2022-08-17T03:22:53.258Z,27.58
2022-08-17T03:25:28.559Z,26.51
2022-08-17T03:27:57.348Z,25.50
2022-08-17T03:30:27.162Z,25.32
2022-08-17T03:32:57.997Z,27.03
2022-08-17T03:35:29.511Z,27.56
2022-08-17T03:38:00.442Z,26.54
2022-08-17T03:40:34.650Z,25.59
2022-08-17T03:43:22.164Z,24.86
2022-08-17T03:46:27.090Z,25.74
2022-08-17T03:49:15.821Z,27.61
2022-08-17T03:52:02.533Z,26.94
2022-08-17T03:54:49.501Z,25.71
2022-08-17T03:57:17.720Z,24.84
2022-08-17T03:59:45.926Z,25.81
2022-08-17T04:02:21.850Z,27.44
2022-08-17T04:04:51.167Z,27.32
2022-08-17T04:07:21.066Z,26.15
2022-08-17T04:09:49.808Z,25.20
2022-08-17T04:12:20.075Z,25.14
2022-08-17T04:14:52.977Z,26.88
2022-08-17T04:17:26.770Z,27.69
2022-08-17T04:19:56.255Z,26.71
2022-08-17T04:22:32.089Z,25.68
2022-08-17T04:25:16.297Z,24.93
2022-08-17T04:27:44.450Z,25.86
2022-08-17T04:30:13.749Z,27.54
2022-08-17T04:33:15.809Z,27.63
2022-08-17T04:35:47.418Z,26.27
2022-08-17T04:38:18.615Z,25.36
2022-08-17T04:41:05.942Z,25.33
2022-08-17T04:43:35.412Z,27.19
2022-08-17T04:46:13.549Z,27.77
2022-08-17T04:48:48.050Z,26.66
2022-08-17T04:51:21.778Z,25.54
2022-08-17T04:53:54.523Z,25.26
2022-08-17T04:56:26.093Z,26.89
2022-08-17T04:59:00.634Z,27.70
2022-08-17T05:01:31.418Z,26.74
2022-08-17T05:04:20.827Z,25.72
2022-08-17T05:06:52.190Z,24.85
2022-08-17T05:09:20.365Z,24.96
2022-08-17T05:11:48.641Z,26.80
2022-08-17T05:14:16.814Z,27.80
2022-08-17T05:16:46.115Z,27.00
2022-08-17T05:19:14.288Z,25.94
2022-08-17T05:21:42.666Z,25.17
2022-08-17T05:24:16.723Z,25.22
2022-08-17T05:27:04.236Z,27.23
2022-08-17T05:29:35.911Z,27.99
2022-08-17T05:32:37.897Z,27.06
2022-08-17T05:35:02.622Z,25.87
2022-08-17T05:37:30.799Z,25.70
2022-08-17T05:39:58.988Z,27.31
2022-08-17T05:42:27.247Z,28.14
2022-08-17T05:44:59.109Z,27.29
2022-08-17T05:47:28.095Z,26.27
2022-08-17T05:49:56.735Z,25.54
2022-08-17T05:52:59.060Z,25.68
2022-08-17T05:55:40.237Z,27.82
2022-08-17T05:58:46.608Z,28.00
2022-08-17T06:01:51.850Z,26.72
2022-08-17T06:04:45.829Z,25.68
2022-08-17T06:07:29.057Z,25.95
2022-08-17T06:10:02.966Z,27.82
2022-08-17T06:12:52.643Z,28.12
2022-08-17T06:15:52.663Z,26.90
2022-08-17T06:18:24.729Z,25.84
2022-08-17T06:20:58.637Z,25.88
2022-08-17T06:23:30.703Z,27.68
2022-08-17T06:26:04.612Z,28.51
2022-08-17T06:28:50.806Z,27.57
2022-08-17T06:31:23.794Z,26.47
2022-08-17T06:33:51.968Z,26.27
2022-08-17T06:36:26.697Z,27.90
2022-08-17T06:39:13.712Z,28.63
2022-08-17T06:42:54.958Z,27.55
2022-08-17T06:45:14.491Z,26.39
2022-08-17T06:48:15.516Z,26.76
2022-08-17T06:50:53.927Z,28.61
2022-08-17T06:53:45.858Z,28.28
2022-08-17T06:56:57.501Z,27.12
2022-08-17T06:59:54.799Z,26.18
2022-08-17T07:02:51.555Z,26.63
2022-08-17T07:05:31.195Z,28.66
2022-08-17T07:08:15.138Z,28.82
2022-08-17T07:10:51.406Z,27.66
2022-08-17T07:13:22.342Z,26.78
2022-08-17T07:15:57.106Z,26.74
2022-08-17T07:18:27.290Z,28.47
2022-08-17T07:21:02.529Z,29.15
2022-08-17T07:23:42.070Z,28.20
2022-08-17T07:26:10.550Z,27.21
2022-08-17T07:28:39.373Z,26.56
2022-08-17T07:31:08.641Z,26.66
2022-08-17T07:33:37.120Z,28.39
2022-08-17T07:36:05.958Z,29.31
2022-08-17T07:38:35.757Z,28.53
2022-08-17T07:41:11.268Z,27.54
2022-08-17T07:43:42.226Z,26.81
2022-08-17T07:47:06.087Z,27.34
2022-08-17T07:49:48.290Z,29.34
2022-08-17T07:52:51.440Z,28.85
2022-08-17T07:55:33.175Z,27.67
2022-08-17T07:58:02.069Z,26.96
2022-08-17T08:00:32.277Z,27.09
2022-08-17T08:03:26.119Z,28.86
2022-08-17T08:05:57.943Z,29.63
2022-08-17T08:08:25.896Z,28.68
2022-08-17T08:11:08.405Z,27.79
2022-08-17T08:13:44.069Z,27.14
2022-08-17T08:16:14.481Z,27.38
2022-08-17T08:18:55.982Z,29.22
2022-08-17T08:21:31.101Z,29.76
2022-08-17T08:24:23.958Z,28.74
2022-08-17T08:27:18.956Z,27.77
2022-08-17T08:30:05.154Z,27.14
2022-08-17T08:33:17.462Z,27.53
2022-08-17T08:37:13.054Z,29.62
2022-08-17T08:39:24.876Z,28.91
2022-08-17T08:42:08.001Z,28.08
2022-08-17T08:45:00.264Z,27.50
2022-08-17T08:48:22.736Z,28.00
2022-08-17T08:51:13.645Z,30.06
2022-08-17T08:53:52.252Z,29.57
2022-08-17T08:57:25.472Z,28.68
2022-08-17T09:00:09.812Z,27.86
2022-08-17T09:02:40.907Z,27.43
2022-08-17T09:05:17.886Z,27.74
2022-08-17T09:07:56.347Z,29.69
2022-08-17T09:10:31.539Z,30.23
2022-08-17T09:13:12.112Z,29.36
2022-08-17T09:15:47.595Z,28.57
2022-08-17T09:19:03.478Z,28.04
2022-08-17T09:21:48.653Z,27.61
2022-08-17T09:24:27.030Z,28.05
2022-08-17T09:27:01.348Z,29.93
2022-08-17T09:29:35.381Z,29.81
2022-08-17T09:32:18.933Z,28.99
2022-08-17T09:34:52.901Z,28.31
2022-08-17T09:37:33.158Z,27.85
2022-08-17T09:40:24.987Z,27.51
2022-08-17T09:43:03.606Z,27.23
2022-08-17T09:45:41.125Z,27.74
2022-08-17T09:48:22.152Z,29.78
2022-08-17T09:51:14.211Z,29.92
2022-08-17T09:53:44.767Z,29.13
2022-08-17T09:56:48.216Z,28.60
2022-08-17T09:59:39.760Z,28.12
2022-08-17T10:02:38.244Z,27.77
2022-08-17T10:05:22.702Z,27.45
2022-08-17T10:08:02.243Z,27.18
2022-08-17T10:10:56.691Z,27.64
2022-08-17T10:13:28.184Z,29.84
2022-08-17T10:16:18.987Z,29.90
2022-08-17T10:18:47.162Z,29.07
2022-08-17T10:21:36.326Z,28.59
2022-08-17T10:24:33.994Z,28.25
2022-08-17T10:27:07.802Z,27.99
2022-08-17T10:29:48.409Z,27.81
2022-08-17T10:32:49.509Z,27.63
2022-08-17T10:35:27.103Z,27.41
2022-08-17T10:38:16.782Z,27.23
2022-08-17T10:41:21.412Z,27.05
2022-08-17T10:44:37.959Z,26.89
2022-08-17T10:47:14.795Z,26.95
2022-08-17T10:49:49.830Z,28.78
2022-08-17T10:52:24.956Z,30.33
2022-08-17T10:54:58.632Z,29.83
2022-08-17T10:57:27.053Z,29.13
2022-08-17T11:00:00.344Z,28.71
2022-08-17T11:02:39.680Z,28.50
2022-08-17T11:05:29.258Z,28.41
2022-08-17T11:08:17.399Z,28.41
2022-08-17T11:11:20.802Z,28.43
2022-08-17T11:14:28.803Z,28.42
2022-08-17T11:17:49.920Z,28.39
2022-08-17T11:20:30.587Z,28.43
2022-08-17T11:23:17.501Z,28.45
2022-08-17T11:25:55.732Z,28.37
2022-08-17T11:28:23.726Z,28.23
2022-08-17T11:30:59.234Z,28.07
2022-08-17T11:33:36.873Z,27.90
2022-08-17T11:36:37.864Z,28.29
2022-08-17T11:39:37.104Z,30.56
2022-08-17T11:42:10.375Z,30.88
2022-08-17T11:44:47.442Z,30.00
2022-08-17T11:47:52.953Z,29.27
2022-08-17T11:50:57.523Z,28.61
2022-08-17T11:54:03.621Z,28.92
2022-08-17T11:56:49.982Z,31.04
2022-08-17T11:59:33.414Z,31.10
2022-08-17T12:02:22.580Z,29.79
2022-08-17T12:05:03.260Z,28.67
2022-08-17T12:07:33.473Z,28.09
2022-08-17T12:10:02.041Z,29.33
2022-08-17T12:12:35.884Z,30.45
2022-08-17T12:15:12.104Z,29.72
2022-08-17T12:17:52.452Z,28.69
2022-08-17T12:20:28.854Z,27.89
2022-08-17T12:23:22.826Z,27.32
2022-08-17T12:26:03.750Z,27.76
2022-08-17T12:28:38.876Z,29.67
2022-08-17T12:31:14.690Z,29.88
2022-08-17T12:33:44.807Z,28.84
2022-08-17T12:36:16.464Z,27.98
2022-08-17T12:39:13.066Z,27.89
2022-08-17T12:41:47.256Z,29.80
2022-08-17T12:44:25.537Z,30.07
2022-08-17T12:47:23.300Z,28.98
2022-08-17T12:49:55.064Z,27.88
2022-08-17T12:52:28.233Z,27.68
2022-08-17T12:55:00.825Z,29.30
2022-08-17T12:57:46.348Z,30.36
2022-08-17T13:00:17.893Z,29.68
2022-08-17T13:03:12.778Z,28.61
2022-08-17T13:05:53.966Z,27.75
2022-08-17T13:08:31.430Z,28.74
2022-08-17T13:11:22.565Z,30.30
2022-08-17T13:13:57.167Z,30.11
2022-08-17T13:16:30.141Z,29.05
2022-08-17T13:19:15.716Z,28.30
2022-08-17T13:21:48.312Z,29.42
2022-08-17T13:24:29.691Z,30.77
2022-08-17T13:27:08.704Z,30.61
2022-08-17T13:29:37.307Z,29.59
2022-08-17T13:32:13.313Z,28.82
2022-08-17T13:35:12.537Z,28.90
2022-08-17T13:37:48.319Z,30.88
2022-08-17T13:40:19.411Z,31.39
2022-08-17T13:42:53.566Z,30.48
2022-08-17T13:45:34.965Z,29.56
2022-08-17T13:48:24.229Z,28.84
2022-08-17T13:50:52.507Z,28.30
2022-08-17T13:53:35.662Z,28.47
2022-08-17T13:56:37.912Z,30.37
2022-08-17T13:59:15.704Z,30.86
2022-08-17T14:01:53.493Z,29.82
2022-08-17T14:04:28.236Z,28.98
2022-08-17T14:06:58.965Z,28.96
2022-08-17T14:09:40.142Z,30.61
2022-08-17T14:12:15.590Z,31.01
2022-08-17T14:14:45.013Z,30.12
2022-08-17T14:17:13.663Z,29.39
2022-08-17T14:19:41.884Z,28.85
2022-08-17T14:22:19.242Z,28.99
2022-08-17T14:24:47.310Z,30.71
2022-08-17T14:27:17.843Z,30.97
2022-08-17T14:29:46.221Z,30.09
2022-08-17T14:32:25.042Z,29.33
2022-08-17T14:34:56.904Z,29.34
2022-08-17T14:37:28.154Z,30.94
2022-08-17T14:39:58.743Z,31.35
2022-08-17T14:42:30.284Z,30.48
2022-08-17T14:45:00.148Z,29.68
2022-08-17T14:47:28.321Z,29.13
2022-08-17T14:49:56.292Z,29.17
2022-08-17T14:52:24.261Z,30.77
2022-08-17T14:54:53.268Z,31.30
2022-08-17T14:57:33.487Z,30.46
2022-08-17T15:00:04.757Z,29.61
2022-08-17T15:02:48.388Z,29.05
2022-08-17T15:05:17.439Z,29.25
2022-08-17T15:07:45.841Z,30.92
2022-08-17T15:10:15.281Z,31.43
2022-08-17T15:12:43.893Z,30.55
2022-08-17T15:15:14.486Z,29.73
2022-08-17T15:17:46.218Z,29.14
2022-08-17T15:20:20.907Z,29.27
2022-08-17T15:22:50.109Z,31.01
2022-08-17T15:25:19.879Z,31.74
2022-08-17T15:27:48.582Z,30.94
2022-08-17T15:30:17.182Z,30.10
2022-08-17T15:32:45.804Z,29.54
2022-08-17T15:35:30.596Z,29.15
2022-08-17T15:38:06.256Z,28.83
2022-08-17T15:40:40.983Z,29.17
2022-08-17T15:43:12.732Z,30.92
2022-08-17T15:45:41.723Z,31.04
2022-08-17T15:48:10.891Z,30.24
2022-08-17T15:50:38.993Z,29.57
2022-08-17T15:53:07.168Z,29.10
2022-08-17T15:55:36.877Z,29.27
2022-08-17T15:58:05.051Z,30.97
2022-08-17T16:00:47.110Z,31.65
2022-08-17T16:03:58.307Z,30.72
2022-08-17T16:06:11.136Z,29.83
2022-08-17T16:08:41.823Z,29.29
2022-08-17T16:11:11.992Z,28.86
2022-08-17T16:13:41.715Z,28.99
2022-08-17T16:16:16.233Z,30.78
2022-08-17T16:18:44.329Z,31.50
2022-08-17T16:21:27.330Z,30.69
2022-08-17T16:24:05.846Z,29.78
2022-08-17T16:26:42.045Z,29.19
2022-08-17T16:29:10.387Z,28.80
2022-08-17T16:31:39.070Z,29.06
2022-08-17T16:34:17.603Z,30.88
2022-08-17T16:36:53.674Z,31.27
2022-08-17T16:39:26.664Z,30.39
2022-08-17T16:41:56.169Z,29.66
2022-08-17T16:44:26.060Z,29.14
2022-08-17T16:46:54.230Z,29.21
2022-08-17T16:49:35.865Z,30.86
2022-08-17T16:52:10.628Z,31.41
2022-08-17T16:54:43.910Z,30.52
2022-08-17T16:57:14.316Z,29.72
2022-08-17T16:59:47.479Z,29.18
2022-08-17T17:02:25.264Z,28.75
2022-08-17T17:05:16.879Z,29.03
2022-08-17T17:07:51.172Z,31.02
2022-08-17T17:10:25.001Z,31.42
2022-08-17T17:13:02.428Z,30.48
2022-08-17T17:15:53.695Z,29.60
2022-08-17T17:18:32.264Z,28.96
2022-08-17T17:21:01.423Z,29.49
2022-08-17T17:23:52.433Z,31.19
2022-08-17T17:26:20.400Z,31.16
2022-08-17T17:29:48.205Z,30.19
2022-08-17T17:32:25.770Z,29.30
2022-08-17T17:35:01.112Z,30.49
2022-08-17T17:37:34.027Z,31.53
2022-08-17T17:40:13.673Z,30.79
2022-08-17T17:42:44.020Z,29.78
2022-08-17T17:45:26.247Z,29.14
2022-08-17T17:47:54.748Z,30.13
